ePrivacy and GPDR Cookie Consent by Cookie Consent
EmailTwitter


Surface observations / United Kingdom / EGLL (03772)

Regions: Quebec | Canada | USA | Europe | France | UK | Elsewhere
Station
Display
Info & Location for EGLL (03772) | Help decoding METAR

Weather Conditions observed on 2021/05/08 at 03:20 UTC at LONDON/HEATHROW, UK (EGLL)

Sky conditions: partly cloudy.

Obstruction(s) to Vision: light rain.

Temperature: 7.0 Celsius.

Dewpoint: 2.0 Celsius.

Relative Humidity: 70%

Winds: Southeast at 13 km/h or 7 knots.

Mean Sea level Pressure: 101.00 kilopascals.

Horizontal visibility: 6.21 statute miles or 9.94 kilometers.

Height of the Ceiling: 1463 metres ( 4800 feet ).

Coded METAR:

EGLL 080320Z AUTO 13007KT 9999 -RA BKN048 07/02 Q1010=